Time;durP1;ratioP1;P1;durP2;ratioP2;P2;SDS_P1;SDS_P2;PMS_P1;PMS_P2;Temp;Humidity;BMP_temperature;BMP_pressure;BME280_temperature;BME280_humidity;BME280_pressure;Samples;Min_cycle;Max_cycle;Signal;HPM_P1;HPM_P2
2022/10/28 00:02:13;;;;;;;2.60;2.43;;;15.30;97.30;;;;;;5013376;28;20941;-86
2022/10/28 00:04:41;;;;;;;4.43;2.10;;;15.30;97.30;;;;;;5014033;28;20786;-88
2022/10/28 00:07:11;;;;;;;5.60;2.90;;;15.30;97.30;;;;;;5026318;28;20435;-85
2022/10/28 00:10:13;;;;;;;3.40;1.93;;;15.30;97.30;;;;;;5033919;28;20442;-88
2022/10/28 00:12:41;;;;;;;5.13;2.03;;;15.40;97.30;;;;;;5029981;28;20454;-89
2022/10/28 00:15:09;;;;;;;1.70;1.60;;;15.40;97.30;;;;;;5025961;28;20426;-88
2022/10/28 00:17:42;;;;;;;4.43;1.67;;;15.40;97.30;;;;;;5023544;28;20493;-88
2022/10/28 00:20:08;;;;;;;2.93;2.37;;;15.40;97.30;;;;;;5021108;28;20408;-86
2022/10/28 00:22:36;;;;;;;6.07;2.77;;;15.40;97.30;;;;;;5035227;28;20420;-87
2022/10/28 00:25:02;;;;;;;3.03;2.00;;;15.40;97.30;;;;;;5033349;28;20423;-88
2022/10/28 00:27:28;;;;;;;4.60;2.23;;;15.40;97.30;;;;;;5031012;28;20844;-87
2022/10/28 00:29:57;;;;;;;6.57;2.17;;;15.40;97.30;;;;;;5029281;28;20426;-87
2022/10/28 00:32:23;;;;;;;1.63;1.57;;;15.40;97.30;;;;;;5033264;28;20299;-87
2022/10/28 00:34:51;;;;;;;2.60;2.40;;;15.50;97.30;;;;;;5021107;28;20451;-87
2022/10/28 00:37:16;;;;;;;6.70;2.27;;;15.50;97.30;;;;;;5033512;28;20227;-84
2022/10/28 00:39:42;;;;;;;1.40;1.30;;;15.50;97.30;;;;;;5035277;28;20414;-88
2022/10/28 00:42:10;;;;;;;1.97;1.87;;;15.50;97.30;;;;;;5027024;28;20185;-87
2022/10/28 00:44:38;;;;;;;1.40;1.30;;;15.50;97.30;;;;;;5033497;28;20203;-88
2022/10/28 00:47:25;;;;;;;1.87;1.77;;;15.50;97.30;;;;;;5033751;28;20574;-88
2022/10/28 00:49:53;;;;;;;3.47;2.00;;;15.60;97.30;;;;;;5016699;28;20438;-87
2022/10/28 00:52:22;;;;;;;3.33;2.30;;;15.60;97.30;;;;;;5017114;28;20460;-85
2022/10/28 00:54:51;;;;;;;5.27;2.53;;;15.60;97.30;;;;;;5025126;28;20416;-88
2022/10/28 00:57:22;;;;;;;9.10;2.27;;;15.60;97.30;;;;;;5033572;28;20435;-86
2022/10/28 00:59:51;;;;;;;6.77;3.60;;;15.60;97.30;;;;;;5033555;28;20560;-87
2022/10/28 01:02:19;;;;;;;3.20;2.33;;;15.70;97.30;;;;;;5019686;28;20419;-88
2022/10/28 01:04:55;;;;;;;9.53;3.97;;;15.60;97.30;;;;;;5021225;28;20487;-89
2022/10/28 01:07:21;;;;;;;2.13;1.97;;;15.60;97.30;;;;;;5012963;28;20469;-88
2022/10/28 01:09:49;;;;;;;2.80;2.60;;;15.60;97.30;;;;;;5015538;28;20411;-88
2022/10/28 01:12:47;;;;;;;11.47;2.93;;;15.50;97.30;;;;;;5026534;28;20837;-88
2022/10/28 01:15:40;;;;;;;1.67;1.57;;;15.50;97.30;;;;;;5034627;28;20466;-88
2022/10/28 01:18:08;;;;;;;1.50;1.30;;;15.50;97.30;;;;;;5030640;28;20507;-87
2022/10/28 01:20:58;;;;;;;2.70;1.83;;;15.50;97.30;;;;;;5013224;28;20905;-88
2022/10/28 01:23:59;;;;;;;1.83;1.73;;;15.50;97.30;;;;;;5026273;28;20475;-88
2022/10/28 01:26:40;;;;;;;4.00;2.50;;;15.40;97.30;;;;;;5012885;28;20447;-87
2022/10/28 01:29:32;;;;;;;12.67;2.77;;;15.40;97.30;;;;;;5012589;28;20463;-88
2022/10/28 01:32:01;;;;;;;1.63;1.50;;;15.40;97.30;;;;;;5014097;28;20986;-88
2022/10/28 01:34:38;;;;;;;4.33;2.67;;;15.40;97.30;;;;;;5015008;28;20416;-88
2022/10/28 01:37:18;;;;;;;5.60;2.53;;;15.40;97.30;;;;;;5032541;28;20468;-88
2022/10/28 01:39:43;;;;;;;1.73;1.40;;;15.40;97.30;;;;;;5014588;28;20498;-87
2022/10/28 01:42:37;;;;;;;3.43;2.67;;;15.40;97.30;;;;;;5027649;28;20416;-87
2022/10/28 01:45:21;;;;;;;4.40;2.57;;;15.40;97.30;;;;;;5044494;28;20184;-88
2022/10/28 01:48:00;;;;;;;3.27;1.90;;;15.50;97.30;;;;;;5049730;28;20468;-88
2022/10/28 01:50:52;;;;;;;1.60;1.50;;;15.50;97.30;;;;;;5021315;28;20440;-87
2022/10/28 01:53:22;;;;;;;1.60;1.50;;;15.50;97.30;;;;;;5032267;28;20447;-87
2022/10/28 01:55:52;;;;;;;4.10;2.53;;;15.50;97.30;;;;;;5032966;28;20498;-86
2022/10/28 01:58:29;;;;;;;2.30;2.10;;;15.50;97.30;;;;;;5032144;28;20949;-87
2022/10/28 02:00:57;;;;;;;2.53;2.33;;;15.50;97.30;;;;;;5032327;28;20510;-87
2022/10/28 02:03:23;;;;;;;1.73;1.70;;;15.50;97.30;;;;;;5018506;28;20424;-87
2022/10/28 02:05:57;;;;;;;1.83;1.73;;;15.50;97.30;;;;;;5012461;28;20839;-87
2022/10/28 02:08:51;;;;;;;6.47;3.07;;;15.50;97.30;;;;;;5012952;28;20235;-88
2022/10/28 02:11:41;;;;;;;7.03;3.20;;;15.40;97.30;;;;;;5023179;28;20436;-87
2022/10/28 02:14:48;;;;;;;7.80;2.27;;;15.40;97.30;;;;;;5025389;28;20423;-87
2022/10/28 02:17:19;;;;;;;2.00;1.90;;;15.40;97.30;;;;;;4967744;28;20467;-88
2022/10/28 02:20:03;;;;;;;1.37;1.33;;;15.40;97.30;;;;;;4991000;28;20512;-87
2022/10/28 02:22:36;;;;;;;1.90;1.53;;;15.50;97.30;;;;;;4996866;28;20424;-87
2022/10/28 02:25:07;;;;;;;2.57;1.67;;;15.40;97.30;;;;;;5011518;28;20424;-88
2022/10/28 02:27:58;;;;;;;2.27;2.10;;;15.40;97.30;;;;;;5024450;28;20939;-88
2022/10/28 02:30:31;;;;;;;3.10;2.27;;;15.40;97.30;;;;;;5025788;28;20784;-87
2022/10/28 02:33:00;;;;;;;3.33;2.00;;;15.40;97.30;;;;;;5013055;28;20451;-88
2022/10/28 02:35:37;;;;;;;6.30;3.07;;;15.40;97.30;;;;;;5028409;28;20505;-87
2022/10/28 02:38:09;;;;;;;1.53;1.43;;;15.40;97.30;;;;;;5031035;28;20442;-88
2022/10/28 02:40:37;;;;;;;3.33;2.03;;;15.30;97.30;;;;;;5013002;28;20412;-88
2022/10/28 02:43:07;;;;;;;6.77;2.20;;;15.30;97.30;;;;;;5017588;28;20965;-88
2022/10/28 02:45:42;;;;;;;3.13;2.30;;;15.30;97.30;;;;;;5034428;28;20469;-89
2022/10/28 02:48:33;;;;;;;1.97;1.90;;;15.30;97.30;;;;;;5023135;28;20470;-87
2022/10/28 02:51:10;;;;;;;3.03;2.50;;;15.20;97.30;;;;;;5017024;28;20526;-87
2022/10/28 02:53:54;;;;;;;2.03;1.60;;;15.20;97.30;;;;;;5029924;28;20427;-87
2022/10/28 02:56:21;;;;;;;1.73;1.60;;;15.20;97.30;;;;;;5015647;28;20424;-87
2022/10/28 02:58:47;;;;;;;1.70;1.63;;;15.20;97.30;;;;;;5032706;28;20778;-87
2022/10/28 03:01:13;;;;;;;4.50;3.27;;;15.20;97.30;;;;;;5026475;28;20953;-88
2022/10/28 03:03:40;;;;;;;4.00;3.60;;;15.20;97.30;;;;;;5016122;28;20412;-87
2022/10/28 03:06:05;;;;;;;3.53;1.93;;;15.20;97.30;;;;;;5019106;28;20259;-91
2022/10/28 03:08:31;;;;;;;1.60;1.53;;;15.10;97.30;;;;;;5053235;28;20419;-90
2022/10/28 03:10:56;;;;;;;2.50;2.00;;;15.10;97.30;;;;;;5057043;28;20187;-90
2022/10/28 03:13:22;;;;;;;3.37;2.87;;;15.00;97.30;;;;;;5040980;28;20236;-89
2022/10/28 03:15:50;;;;;;;5.47;2.20;;;15.00;97.30;;;;;;5039460;28;20260;-86
2022/10/28 03:18:15;;;;;;;5.70;2.80;;;15.00;97.30;;;;;;5031420;28;20188;-87
2022/10/28 03:20:41;;;;;;;1.70;1.60;;;14.90;97.30;;;;;;5024318;28;20415;-87
2022/10/28 03:23:08;;;;;;;1.77;1.67;;;14.90;97.30;;;;;;5033407;28;20183;-87
2022/10/28 03:25:34;;;;;;;4.87;3.00;;;14.90;97.30;;;;;;5014600;28;20239;-87
2022/10/28 03:27:59;;;;;;;3.20;3.00;;;14.90;97.30;;;;;;5016381;28;20966;-88
2022/10/28 03:30:25;;;;;;;4.93;3.77;;;14.90;97.30;;;;;;5028843;28;20311;-83
2022/10/28 03:32:50;;;;;;;4.13;2.20;;;14.90;97.30;;;;;;5029611;28;20246;-87
2022/10/28 03:35:17;;;;;;;1.50;1.40;;;14.90;97.30;;;;;;5027504;28;20639;-87
2022/10/28 03:37:43;;;;;;;6.50;2.20;;;14.90;97.30;;;;;;5026015;28;20570;-87
2022/10/28 03:40:10;;;;;;;3.53;2.50;;;14.90;97.30;;;;;;5024094;28;20418;-86
2022/10/28 03:42:38;;;;;;;3.93;2.43;;;14.90;97.30;;;;;;5030669;28;20419;-87
2022/10/28 03:45:04;;;;;;;2.93;1.20;;;14.90;97.30;;;;;;5024390;28;20510;-86
2022/10/28 03:47:30;;;;;;;1.73;1.67;;;14.90;97.30;;;;;;5052618;22;20533;-85
2022/10/28 03:49:55;;;;;;;3.87;2.73;;;14.90;97.30;;;;;;5014094;28;20459;-80
2022/10/28 03:52:21;;;;;;;6.13;1.80;;;14.90;97.30;;;;;;5013410;28;20270;-82
2022/10/28 03:54:46;;;;;;;1.73;1.63;;;14.90;97.30;;;;;;5032564;28;20188;-84
2022/10/28 03:57:12;;;;;;;1.90;1.80;;;14.90;97.30;;;;;;5034207;28;20563;-82
2022/10/28 03:59:37;;;;;;;6.47;2.93;;;14.90;97.30;;;;;;5034634;28;20312;-84
2022/10/28 04:02:03;;;;;;;4.13;2.60;;;14.90;97.30;;;;;;5034811;28;20188;-84
2022/10/28 04:04:29;;;;;;;3.30;2.43;;;15.00;97.30;;;;;;5045526;28;20192;-82
2022/10/28 04:06:54;;;;;;;2.40;2.20;;;15.00;97.30;;;;;;5050313;28;20187;-80
2022/10/28 04:09:20;;;;;;;3.77;3.00;;;15.00;97.30;;;;;;5040579;28;20702;-81
2022/10/28 04:11:48;;;;;;;8.00;1.60;;;15.00;97.30;;;;;;5023634;28;20210;-83
2022/10/28 04:14:14;;;;;;;2.27;2.07;;;15.00;97.30;;;;;;5033313;28;20172;-83
2022/10/28 04:16:39;;;;;;;3.20;3.00;;;15.00;97.30;;;;;;5036337;28;20406;-83
2022/10/28 04:19:05;;;;;;;4.50;2.03;;;15.10;97.30;;;;;;5022914;28;20196;-83
2022/10/28 04:21:31;;;;;;;3.60;1.90;;;15.10;97.30;;;;;;5030551;28;20268;-80
2022/10/28 04:24:05;;;;;;;1.83;1.67;;;15.10;97.30;;;;;;5026120;28;20180;-82
2022/10/28 04:26:31;;;;;;;2.13;1.97;;;15.10;97.30;;;;;;5032332;28;20666;-82
2022/10/28 04:29:00;;;;;;;1.47;1.23;;;15.00;97.30;;;;;;5027280;28;20456;-82
2022/10/28 04:31:29;;;;;;;2.20;2.00;;;15.10;97.30;;;;;;5029614;28;20453;-82
2022/10/28 04:33:57;;;;;;;5.17;3.20;;;15.10;97.30;;;;;;5032030;28;20472;-82
2022/10/28 04:36:37;;;;;;;5.27;1.30;;;15.10;97.30;;;;;;5029373;28;20426;-80
2022/10/28 04:39:08;;;;;;;27.93;2.60;;;15.10;97.30;;;;;;5028636;28;20548;-80
2022/10/28 04:41:59;;;;;;;1.87;1.77;;;15.10;97.30;;;;;;5025766;28;20801;-82
2022/10/28 04:44:30;;;;;;;2.93;2.23;;;15.00;97.30;;;;;;5018324;28;20465;-80
2022/10/28 04:47:00;;;;;;;2.33;1.87;;;15.00;97.30;;;;;;5033313;28;20457;-81
2022/10/28 04:49:26;;;;;;;1.63;1.53;;;15.00;97.30;;;;;;5031986;28;20543;-82
2022/10/28 04:51:51;;;;;;;1.77;1.77;;;15.00;97.30;;;;;;5021958;28;20968;-83
2022/10/28 04:54:17;;;;;;;7.20;2.80;;;15.00;97.30;;;;;;5035583;28;20183;-83
2022/10/28 04:56:42;;;;;;;2.70;1.50;;;14.90;97.30;;;;;;5052554;28;20210;-83
2022/10/28 04:59:08;;;;;;;4.27;2.27;;;14.90;97.30;;;;;;5035281;28;20215;-83
2022/10/28 05:01:33;;;;;;;3.80;2.60;;;14.90;97.30;;;;;;5036239;28;20411;-83
2022/10/28 05:03:59;;;;;;;9.97;1.70;;;14.90;97.30;;;;;;5036643;28;20184;-82
2022/10/28 05:06:27;;;;;;;2.60;1.97;;;14.80;97.30;;;;;;5038069;28;20233;-81
2022/10/28 05:08:53;;;;;;;2.43;2.23;;;14.80;97.30;;;;;;5033100;28;20596;-83
2022/10/28 05:11:25;;;;;;;1.47;1.40;;;14.80;97.30;;;;;;5029580;28;20453;-82
2022/10/28 05:13:53;;;;;;;3.07;2.27;;;14.90;97.30;;;;;;5030713;28;20427;-80
2022/10/28 05:16:20;;;;;;;2.13;1.67;;;14.90;97.30;;;;;;5030826;28;20427;-81
2022/10/28 05:18:48;;;;;;;3.50;2.33;;;14.90;97.30;;;;;;5021649;28;20515;-81
2022/10/28 05:21:20;;;;;;;17.00;3.40;;;14.90;97.30;;;;;;5031914;28;20434;-81
2022/10/28 05:23:54;;;;;;;1.57;1.30;;;14.90;97.30;;;;;;5037198;28;20440;-82
2022/10/28 05:26:19;;;;;;;2.97;2.80;;;14.90;97.30;;;;;;5033862;28;20434;-83
2022/10/28 05:28:49;;;;;;;2.90;2.70;;;14.90;97.30;;;;;;5035061;28;20426;-84
2022/10/28 05:31:16;;;;;;;3.20;1.80;;;14.90;97.30;;;;;;5034699;28;20188;-83
2022/10/28 05:33:41;;;;;;;2.47;2.27;;;14.80;97.30;;;;;;5023429;28;20427;-83
2022/10/28 05:36:07;;;;;;;2.63;2.27;;;14.90;97.30;;;;;;5015115;28;20416;-83
2022/10/28 05:38:32;;;;;;;1.97;1.87;;;14.90;97.30;;;;;;5014705;28;20197;-83
2022/10/28 05:40:58;;;;;;;4.03;2.53;;;14.90;97.30;;;;;;5014716;28;20635;-83
2022/10/28 05:43:23;;;;;;;3.17;1.40;;;14.90;97.30;;;;;;5014048;28;20183;-83
2022/10/28 05:45:53;;;;;;;2.30;1.60;;;14.90;97.30;;;;;;5014620;28;20560;-83
2022/10/28 05:48:19;;;;;;;1.60;1.40;;;14.90;97.30;;;;;;5015112;28;20228;-82
2022/10/28 05:50:44;;;;;;;2.23;2.03;;;14.90;97.30;;;;;;5032492;28;20498;-83
2022/10/28 05:53:10;;;;;;;2.40;2.20;;;15.00;97.30;;;;;;5015039;28;20211;-83
2022/10/28 05:55:35;;;;;;;1.50;1.37;;;15.00;97.30;;;;;;5014198;28;20213;-83
2022/10/28 05:58:02;;;;;;;1.90;1.37;;;15.00;97.30;;;;;;5014825;28;20192;-83
2022/10/28 06:00:27;;;;;;;5.63;2.97;;;15.00;97.30;;;;;;5014982;28;20259;-82
2022/10/28 06:03:05;;;;;;;1.73;1.63;;;15.00;97.30;;;;;;5032659;28;20503;-83
2022/10/28 06:05:31;;;;;;;21.20;2.70;;;15.00;97.30;;;;;;5014522;28;20173;-83
2022/10/28 06:07:56;;;;;;;1.93;1.83;;;15.10;97.30;;;;;;5014647;28;20439;-83
2022/10/28 06:10:22;;;;;;;3.50;2.47;;;15.10;97.30;;;;;;5014641;28;20538;-83
2022/10/28 06:12:47;;;;;;;3.33;2.30;;;15.20;97.30;;;;;;5014425;28;20708;-83
2022/10/28 06:15:13;;;;;;;3.37;1.83;;;15.20;97.30;;;;;;5014624;28;20183;-80
2022/10/28 06:17:38;;;;;;;3.73;2.10;;;15.20;97.30;;;;;;5014164;28;20199;-83
2022/10/28 06:20:04;;;;;;;2.10;1.93;;;15.20;97.30;;;;;;5013743;28;20196;-82
2022/10/28 06:22:30;;;;;;;2.00;1.47;;;15.20;97.30;;;;;;5031767;28;20658;-83
2022/10/28 06:24:55;;;;;;;1.63;1.60;;;15.20;97.30;;;;;;5014343;28;20419;-83
2022/10/28 06:27:21;;;;;;;11.60;4.40;;;15.20;97.30;;;;;;5014304;28;20632;-82
2022/10/28 06:29:47;;;;;;;3.00;1.90;;;15.20;97.30;;;;;;5031724;28;20191;-83
2022/10/28 06:32:12;;;;;;;3.63;2.23;;;15.20;97.30;;;;;;5014184;28;20220;-83
2022/10/28 06:34:38;;;;;;;4.93;2.70;;;15.20;97.30;;;;;;5014418;28;20181;-83
2022/10/28 06:37:05;;;;;;;3.23;2.20;;;15.20;97.30;;;;;;5031845;28;20206;-83
2022/10/28 06:39:31;;;;;;;2.70;2.50;;;15.20;97.30;;;;;;5032161;28;20160;-83
2022/10/28 06:41:56;;;;;;;12.70;1.53;;;15.20;97.30;;;;;;5014349;28;20427;-83
2022/10/28 06:44:22;;;;;;;2.87;1.73;;;15.20;97.30;;;;;;5014323;28;20318;-84
2022/10/28 06:46:48;;;;;;;21.80;2.30;;;15.30;97.30;;;;;;5014193;28;20707;-83
2022/10/28 06:49:13;;;;;;;1.70;1.60;;;15.30;97.30;;;;;;5014160;28;20234;-83
2022/10/28 06:51:39;;;;;;;1.20;1.13;;;15.30;97.30;;;;;;5033722;28;20203;-83
2022/10/28 06:54:04;;;;;;;3.33;2.20;;;15.40;97.30;;;;;;5034105;28;20182;-83
2022/10/28 06:56:30;;;;;;;2.70;2.50;;;15.50;97.30;;;;;;5033954;28;20171;-83
2022/10/28 06:58:56;;;;;;;2.57;2.37;;;15.50;97.30;;;;;;5034020;28;20198;-83
2022/10/28 07:01:21;;;;;;;2.50;2.27;;;15.50;97.30;;;;;;5033652;28;20179;-83
2022/10/28 07:03:47;;;;;;;1.80;1.40;;;15.60;97.30;;;;;;5034167;28;20775;-83
2022/10/28 07:06:15;;;;;;;2.70;1.97;;;15.60;97.30;;;;;;5051702;28;20180;-83
2022/10/28 07:08:41;;;;;;;1.40;1.40;;;15.70;97.30;;;;;;5033297;28;20824;-83
2022/10/28 07:11:07;;;;;;;2.90;1.80;;;15.90;97.30;;;;;;5031930;28;20693;-83
2022/10/28 07:13:32;;;;;;;2.40;1.67;;;16.00;97.30;;;;;;5031860;28;20590;-83
2022/10/28 07:15:59;;;;;;;2.10;2.00;;;16.00;97.30;;;;;;5025599;28;20431;-82
2022/10/28 07:18:27;;;;;;;7.80;1.87;;;16.10;97.30;;;;;;5030253;28;20203;-83
2022/10/28 07:20:53;;;;;;;3.23;2.50;;;16.20;97.30;;;;;;5014541;28;20423;-83
2022/10/28 07:23:19;;;;;;;6.33;4.43;;;16.20;97.30;;;;;;5013102;28;21000;-83
2022/10/28 07:25:54;;;;;;;2.00;1.90;;;16.30;97.30;;;;;;5013057;28;20393;-82
2022/10/28 07:28:21;;;;;;;6.93;3.57;;;16.30;97.30;;;;;;5012732;28;20541;-83
2022/10/28 07:30:46;;;;;;;6.73;2.20;;;16.50;97.30;;;;;;5014818;28;21004;-83
2022/10/28 07:33:12;;;;;;;4.50;2.23;;;16.60;97.30;;;;;;5026488;28;20458;-84
2022/10/28 07:35:38;;;;;;;2.30;2.20;;;16.70;97.30;;;;;;5017852;28;20271;-83
2022/10/28 07:38:03;;;;;;;3.47;2.20;;;16.80;97.30;;;;;;5019212;28;20668;-83
2022/10/28 07:40:29;;;;;;;3.53;2.00;;;17.00;97.30;;;;;;5015504;28;20680;-83
2022/10/28 07:42:54;;;;;;;9.07;3.97;;;17.00;97.30;;;;;;5016305;28;20180;-83
2022/10/28 07:45:20;;;;;;;10.40;1.50;;;17.10;97.30;;;;;;5033659;28;20184;-84
2022/10/28 07:47:45;;;;;;;1.53;1.50;;;17.20;97.30;;;;;;5054502;28;20231;-83
2022/10/28 07:50:11;;;;;;;5.60;2.40;;;17.20;97.30;;;;;;5035310;28;20176;-83
2022/10/28 07:52:37;;;;;;;2.63;2.43;;;17.20;97.30;;;;;;5052760;28;20218;-83
2022/10/28 07:55:04;;;;;;;3.87;1.83;;;17.20;97.30;;;;;;5051974;28;20176;-82
2022/10/28 07:57:29;;;;;;;1.77;1.67;;;17.20;97.30;;;;;;5033361;28;20497;-83
2022/10/28 07:59:55;;;;;;;1.50;1.40;;;17.20;97.30;;;;;;5033588;28;20457;-83
2022/10/28 08:02:23;;;;;;;6.27;2.33;;;17.20;97.30;;;;;;5033736;28;20180;-83
2022/10/28 08:04:48;;;;;;;1.97;1.87;;;17.20;97.30;;;;;;5033744;28;20663;-83
2022/10/28 08:07:15;;;;;;;1.90;1.57;;;17.30;97.30;;;;;;5051527;28;20494;-82
2022/10/28 08:09:41;;;;;;;3.43;1.87;;;17.40;97.30;;;;;;5035390;28;20222;-82
2022/10/28 08:12:07;;;;;;;1.40;1.30;;;17.50;97.30;;;;;;5053124;28;20466;-82
2022/10/28 08:14:33;;;;;;;1.57;1.47;;;17.60;97.30;;;;;;5035573;28;20175;-83
2022/10/28 08:16:59;;;;;;;1.40;1.17;;;17.60;97.30;;;;;;5020251;28;20968;-83
2022/10/28 08:19:25;;;;;;;7.30;2.70;;;17.60;97.30;;;;;;5015217;28;20570;-83
2022/10/28 08:21:50;;;;;;;2.53;2.30;;;17.60;97.30;;;;;;5014919;28;20423;-82
2022/10/28 08:24:16;;;;;;;2.13;1.97;;;17.50;97.30;;;;;;5032698;28;20188;-83
2022/10/28 08:26:41;;;;;;;2.70;2.17;;;17.50;97.30;;;;;;5032807;28;20181;-83
2022/10/28 08:29:09;;;;;;;3.57;1.83;;;17.50;97.30;;;;;;5014618;28;20215;-83
2022/10/28 08:31:34;;;;;;;1.27;1.20;;;17.60;97.30;;;;;;5014795;28;20223;-83
2022/10/28 08:34:00;;;;;;;2.53;2.03;;;17.50;97.30;;;;;;5015135;28;20954;-83
2022/10/28 08:36:25;;;;;;;2.80;2.00;;;17.60;97.30;;;;;;5014566;28;20636;-83
2022/10/28 08:38:51;;;;;;;3.03;1.73;;;17.60;97.30;;;;;;5017449;28;20402;-83
2022/10/28 08:41:43;;;;;;;2.67;2.47;;;17.60;97.30;;;;;;5030258;28;20184;-83
2022/10/28 08:44:32;;;;;;;2.03;1.63;;;17.60;97.30;;;;;;5015299;28;20176;-83
2022/10/28 08:47:18;;;;;;;1.30;1.20;;;17.60;97.30;;;;;;5041975;28;20458;-83
2022/10/28 08:49:46;;;;;;;1.90;1.80;;;17.60;97.30;;;;;;5014529;28;20493;-83
2022/10/28 08:52:29;;;;;;;1.47;1.40;;;17.70;97.30;;;;;;5035524;28;20454;-83
2022/10/28 08:55:11;;;;;;;1.37;1.27;;;17.80;97.30;;;;;;5021141;28;20442;-82
2022/10/28 08:57:45;;;;;;;4.60;1.70;;;17.90;97.30;;;;;;5029411;28;20435;-83
2022/10/28 09:00:31;;;;;;;7.10;1.20;;;18.00;97.30;;;;;;5029228;28;20419;-83
2022/10/28 09:03:11;;;;;;;3.90;2.13;;;18.00;97.30;;;;;;5040973;28;20530;-83
2022/10/28 09:05:39;;;;;;;2.13;1.90;;;18.10;97.30;;;;;;5051213;28;20501;-83
2022/10/28 09:08:05;;;;;;;2.30;1.47;;;18.10;97.30;;;;;;5033519;28;21012;-83
2022/10/28 09:10:56;;;;;;;1.40;1.30;;;18.10;97.30;;;;;;5033182;28;20422;-83
2022/10/28 09:13:54;;;;;;;3.17;1.47;;;18.20;97.30;;;;;;5041921;28;20540;-83
2022/10/28 09:16:34;;;;;;;5.53;2.77;;;18.30;97.30;;;;;;5023127;28;20809;-82
2022/10/28 09:19:12;;;;;;;1.53;1.40;;;18.40;97.30;;;;;;5032900;28;20492;-82
2022/10/28 09:21:53;;;;;;;2.30;2.10;;;18.50;97.30;;;;;;5051110;28;20505;-83
2022/10/28 09:24:28;;;;;;;5.43;2.20;;;18.60;97.30;;;;;;5032717;28;20434;-83
2022/10/28 09:27:07;;;;;;;2.00;1.80;;;18.80;97.30;;;;;;5050473;28;20421;-83
2022/10/28 09:29:59;;;;;;;5.87;1.83;;;19.00;97.30;;;;;;5051138;28;20959;-83
2022/10/28 09:32:31;;;;;;;2.13;1.67;;;19.20;97.30;;;;;;5033049;28;20481;-83
2022/10/28 09:35:08;;;;;;;4.47;3.90;;;19.50;97.30;;;;;;5033068;28;20415;-83
2022/10/28 09:37:42;;;;;;;2.27;2.07;;;19.60;97.30;;;;;;5050668;28;20736;-83
2022/10/28 09:40:24;;;;;;;2.53;2.33;;;19.60;97.30;;;;;;5020079;28;20489;-83
2022/10/28 09:42:55;;;;;;;1.97;1.87;;;19.70;97.30;;;;;;5033194;28;20450;-83
2022/10/28 09:45:29;;;;;;;2.37;2.03;;;19.80;97.30;;;;;;5037564;28;20850;-83
2022/10/28 09:48:00;;;;;;;2.33;1.83;;;19.90;97.30;;;;;;5020331;28;20499;-83
2022/10/28 09:50:31;;;;;;;1.57;1.47;;;20.10;97.30;;;;;;5020252;28;20422;-83
2022/10/28 09:53:18;;;;;;;1.50;1.40;;;20.20;97.30;;;;;;5050292;28;20479;-84
2022/10/28 09:55:44;;;;;;;8.43;2.00;;;20.20;97.30;;;;;;5032669;28;20485;-83
2022/10/28 09:58:11;;;;;;;1.40;1.30;;;20.20;97.30;;;;;;5032273;28;20426;-82
2022/10/28 10:00:37;;;;;;;2.20;2.00;;;20.10;97.30;;;;;;5032937;28;20451;-83
2022/10/28 10:03:03;;;;;;;1.80;1.70;;;20.00;97.30;;;;;;5015787;28;20451;-83
2022/10/28 10:05:36;;;;;;;1.40;1.30;;;20.00;97.30;;;;;;5013407;28;20264;-83
2022/10/28 10:08:05;;;;;;;2.50;2.20;;;20.00;97.30;;;;;;5043816;28;20590;-84
2022/10/28 10:10:38;;;;;;;1.83;1.70;;;20.10;97.30;;;;;;5022104;28;20866;-83
2022/10/28 10:13:07;;;;;;;1.77;1.13;;;20.10;97.30;;;;;;5032139;28;20488;-83
2022/10/28 10:15:43;;;;;;;2.80;2.60;;;20.00;97.30;;;;;;5048016;28;20411;-83
2022/10/28 10:18:17;;;;;;;12.13;2.57;;;20.00;97.30;;;;;;5032228;28;20895;-83
2022/10/28 10:20:45;;;;;;;2.77;1.73;;;20.00;97.30;;;;;;5032108;28;20964;-83
2022/10/28 10:23:22;;;;;;;1.63;1.53;;;20.00;97.30;;;;;;5050397;28;20418;-83
2022/10/28 10:26:04;;;;;;;2.00;1.67;;;20.00;97.30;;;;;;5030215;28;20445;-83
2022/10/28 10:28:31;;;;;;;2.70;2.03;;;20.00;97.30;;;;;;5048138;28;20469;-83
2022/10/28 10:31:00;;;;;;;3.73;1.93;;;20.00;97.30;;;;;;5025799;28;20421;-84
2022/10/28 10:33:30;;;;;;;5.43;1.83;;;20.00;97.30;;;;;;5031993;28;20825;-83
2022/10/28 10:36:08;;;;;;;2.60;1.57;;;20.00;97.30;;;;;;5038792;28;20406;-83
2022/10/28 10:38:35;;;;;;;2.90;2.00;;;20.10;97.30;;;;;;5031921;28;20434;-82
2022/10/28 10:41:00;;;;;;;1.47;1.33;;;20.40;97.30;;;;;;5049780;28;20410;-82
2022/10/28 10:43:26;;;;;;;22.03;3.20;;;20.60;97.30;;;;;;5027220;28;20516;-82
2022/10/28 10:45:57;;;;;;;3.23;1.67;;;20.80;97.30;;;;;;5041349;28;20222;-83
2022/10/28 10:48:23;;;;;;;1.60;1.50;;;21.00;96.70;;;;;;5017265;28;20223;-83
2022/10/28 10:50:49;;;;;;;1.60;1.50;;;21.20;95.90;;;;;;5040311;28;20427;-83
2022/10/28 10:53:27;;;;;;;1.70;1.60;;;21.20;96.00;;;;;;5024747;28;20679;-83
2022/10/28 10:56:00;;;;;;;3.57;1.40;;;21.40;95.60;;;;;;5017262;28;20416;-82
2022/10/28 10:58:28;;;;;;;2.87;1.90;;;21.60;95.40;;;;;;5028207;28;20439;-83
2022/10/28 11:00:56;;;;;;;5.17;2.67;;;21.60;94.50;;;;;;5031692;28;20414;-83
2022/10/28 11:03:28;;;;;;;2.03;1.43;;;21.70;95.10;;;;;;5038486;28;20451;-83
2022/10/28 11:05:56;;;;;;;4.73;2.90;;;21.80;94.90;;;;;;5032214;28;20831;-83
2022/10/28 11:08:34;;;;;;;1.83;1.43;;;22.00;94.30;;;;;;5045703;28;20446;-83
2022/10/28 11:11:12;;;;;;;1.27;1.20;;;22.10;93.10;;;;;;5044191;28;20933;-83
2022/10/28 11:13:38;;;;;;;5.80;1.20;;;22.20;93.00;;;;;;5025366;28;20838;-83
2022/10/28 11:16:15;;;;;;;13.47;2.60;;;22.10;93.00;;;;;;5033339;28;20512;-83
2022/10/28 11:18:46;;;;;;;15.33;2.80;;;22.00;92.50;;;;;;5035694;28;20438;-83
2022/10/28 11:21:36;;;;;;;1.53;1.43;;;22.10;92.80;;;;;;5034528;28;20450;-84
2022/10/28 11:24:47;;;;;;;1.53;1.40;;;22.20;92.70;;;;;;5032080;28;20473;-83
2022/10/28 11:27:24;;;;;;;2.40;1.83;;;22.40;92.70;;;;;;5018195;28;20623;-83
2022/10/28 11:29:49;;;;;;;3.20;1.83;;;22.40;92.40;;;;;;5024293;28;20823;-83
2022/10/28 11:32:54;;;;;;;7.20;1.80;;;22.50;91.50;;;;;;5029235;28;20508;-84
2022/10/28 11:35:34;;;;;;;5.53;2.10;;;22.80;91.20;;;;;;5024335;28;20278;-82
2022/10/28 11:38:24;;;;;;;7.80;4.00;;;23.00;91.10;;;;;;5035286;28;20448;-83
2022/10/28 11:41:05;;;;;;;4.85;1.55;;;23.20;89.90;;;;;;5033998;28;20461;-84
2022/10/28 11:43:40;;;;;;;1.10;1.00;;;23.20;89.90;;;;;;5046845;28;20465;-83
2022/10/28 11:46:29;;;;;;;5.40;2.20;;;23.20;89.80;;;;;;5015903;28;20501;-83
2022/10/28 11:49:31;;;;;;;3.17;1.60;;;23.10;90.40;;;;;;5034991;28;20481;-83
2022/10/28 11:52:06;;;;;;;1.70;1.60;;;23.00;90.40;;;;;;5029627;28;20988;-83
2022/10/28 11:55:05;;;;;;;1.33;1.27;;;23.00;90.70;;;;;;5016618;28;20913;-83
2022/10/28 11:57:43;;;;;;;1.43;1.33;;;23.00;90.80;;;;;;5032904;28;20489;-83
2022/10/28 12:00:41;;;;;;;1.57;1.47;;;23.10;90.30;;;;;;5023288;28;20418;-81
2022/10/28 12:03:46;;;;;;;2.73;2.23;;;23.10;90.30;;;;;;5052971;28;20417;-80
2022/10/28 12:06:26;;;;;;;9.83;1.60;;;23.10;90.50;;;;;;5035883;28;20604;-82
2022/10/28 12:09:17;;;;;;;15.00;2.87;;;23.10;91.10;;;;;;5023975;28;20434;-83
2022/10/28 12:16:08;;;;;;;6.67;3.13;;;23.20;90.80;;;;;;4917318;29;20432;-87
2022/10/28 12:19:17;;;;;;;1.97;1.33;;;23.50;90.50;;;;;;4895659;29;20438;-88
2022/10/28 12:22:21;;;;;;;;;;;;;;;;;;;;;
2022/10/28 12:25:07;;;;;;;3.37;1.70;;;24.70;88.80;;;;;;4894965;29;20984;-89
2022/10/28 12:27:49;;;;;;;4.93;1.57;;;25.10;87.10;;;;;;4898688;29;20429;-88
2022/10/28 12:33:17;;;;;;;3.77;1.70;;;25.00;87.40;;;;;;5075609;23;20489;-88
2022/10/28 12:36:09;;;;;;;2.53;2.20;;;24.90;87.20;;;;;;5073250;28;20413;-88
2022/10/28 12:39:39;;;;;;;2.43;1.30;;;25.20;87.10;;;;;;5042473;28;20418;-87
2022/10/28 12:42:39;;;;;;;3.17;1.67;;;25.40;86.30;;;;;;4993761;28;20515;-89
2022/10/28 12:45:16;;;;;;;1.50;1.40;;;25.30;86.90;;;;;;5047678;28;20426;-89
2022/10/28 12:48:23;;;;;;;1.90;1.70;;;25.40;86.70;;;;;;5043345;28;20437;-89
2022/10/28 12:57:40;;;;;;;;;;;;;;;;;;;;;
2022/10/28 13:03:17;;;;;;;6.87;2.53;;;24.50;88.20;;;;;;5021476;23;20492;-89
2022/10/28 13:06:59;;;;;;;1.83;1.63;;;24.30;88.80;;;;;;4985214;28;20428;-88
2022/10/28 13:10:09;;;;;;;1.10;1.00;;;24.10;89.30;;;;;;4990686;28;20409;-89
2022/10/28 13:12:54;;;;;;;1.20;1.10;;;23.90;89.60;;;;;;4969780;28;20480;-87
2022/10/28 13:15:57;;;;;;;2.13;1.80;;;23.80;89.80;;;;;;4961846;28;20429;-87
2022/10/28 13:18:48;;;;;;;5.47;2.27;;;23.70;89.90;;;;;;4966242;28;20471;-87
2022/10/28 13:24:29;;;;;;;2.63;2.43;;;23.50;90.10;;;;;;4965150;28;20470;-87
2022/10/28 13:27:08;;;;;;;2.20;1.73;;;23.50;90.40;;;;;;4968511;28;20436;-87
2022/10/28 13:32:59;;;;;;;3.33;1.93;;;23.30;91.00;;;;;;5030481;22;20574;-88
2022/10/28 13:36:08;;;;;;;6.03;2.97;;;23.20;91.20;;;;;;5012694;28;20531;-85
2022/10/28 13:38:59;;;;;;;12.33;2.73;;;23.10;91.60;;;;;;5008400;28;20411;-89
2022/10/28 13:41:30;;;;;;;2.40;1.60;;;23.00;91.90;;;;;;5005355;28;20454;-88
2022/10/28 13:43:58;;;;;;;3.23;1.87;;;23.00;92.30;;;;;;4989675;28;20637;-91